Time;durP1;ratioP1;P1;durP2;ratioP2;P2;SDS_P1;SDS_P2;PMS_P1;PMS_P2;Temp;Humidity;BMP_temperature;BMP_pressure;BME280_temperature;BME280_humidity;BME280_pressure;Samples;Min_cycle;Max_cycle;Signal;HPM_P1;HPM_P2
2022/08/08 00:02:20;0.00;0.00;0.62;0.00;0.00;0.62;3.83;3.40;;;28.10;23.50;;;;;;2214096;62;20518;-71
2022/08/08 00:05:16;0.00;0.00;0.62;0.00;0.00;0.62;4.00;3.60;;;28.10;23.50;;;;;;2214498;62;20396;-69
2022/08/08 00:08:12;0.00;0.00;0.62;0.00;0.00;0.62;4.30;3.30;;;28.10;23.50;;;;;;2214637;62;20388;-70
2022/08/08 00:11:16;0.00;0.00;0.62;0.00;0.00;0.62;3.30;3.00;;;28.10;23.50;;;;;;2214168;62;20417;-71
2022/08/08 00:14:07;0.00;0.00;0.62;0.00;0.00;0.62;3.60;3.23;;;28.10;23.50;;;;;;2214415;62;20418;-69
2022/08/08 00:17:01;0.00;0.00;0.62;0.00;0.00;0.62;3.60;3.17;;;28.10;23.60;;;;;;2213880;62;20377;-70
2022/08/08 00:19:53;0.00;0.00;0.62;0.00;0.00;0.62;3.60;3.30;;;28.10;23.60;;;;;;2214436;62;20578;-71
2022/08/08 00:22:44;0.00;0.00;0.62;0.00;0.00;0.62;4.30;3.43;;;28.10;23.70;;;;;;2214292;62;20409;-71
2022/08/08 00:25:34;0.00;0.00;0.62;0.00;0.00;0.62;4.03;3.63;;;28.10;23.70;;;;;;2214164;62;20389;-69
2022/08/08 00:28:33;0.00;0.00;0.62;0.00;0.00;0.62;4.10;3.57;;;28.10;23.70;;;;;;2214464;62;20388;-70
2022/08/08 00:31:23;0.00;0.00;0.62;0.00;0.00;0.62;4.37;3.40;;;28.10;23.70;;;;;;2213516;62;20454;-71
2022/08/08 00:37:44;0.00;0.00;0.62;0.00;0.00;0.62;3.50;3.20;;;28.10;23.80;;;;;;2214632;62;20721;-69
2022/08/08 00:41:19;0.00;0.00;0.62;0.00;0.00;0.62;4.40;3.90;;;28.10;23.80;;;;;;2213998;62;20510;-70
2022/08/08 00:44:46;0.00;0.00;0.62;0.00;0.00;0.62;4.50;3.93;;;28.10;23.80;;;;;;2214531;62;20399;-71
2022/08/08 00:48:33;0.00;0.00;0.62;0.00;0.00;0.62;6.10;3.30;;;28.00;23.80;;;;;;2213848;62;20392;-71
2022/08/08 00:52:12;0.00;0.00;0.62;0.00;0.00;0.62;4.07;3.30;;;28.00;23.80;;;;;;2214295;62;20439;-69
2022/08/08 00:55:50;0.00;0.00;0.62;0.00;0.00;0.62;4.13;3.40;;;28.00;23.80;;;;;;2207035;62;20415;-70
2022/08/08 00:59:25;0.00;0.00;0.62;0.00;0.00;0.62;3.90;3.50;;;28.00;23.80;;;;;;2214226;62;20477;-69
2022/08/08 01:02:56;0.00;0.00;0.62;0.00;0.00;0.62;3.77;3.37;;;28.00;23.80;;;;;;2210977;62;20415;-71
2022/08/08 01:06:27;0.00;0.00;0.62;0.00;0.00;0.62;4.07;3.67;;;28.00;23.80;;;;;;2216685;62;20372;-70
2022/08/08 01:10:19;0.00;0.00;0.62;0.00;0.00;0.62;4.20;3.80;;;27.90;23.80;;;;;;2213955;62;20641;-72
2022/08/08 01:13:51;0.00;0.00;0.62;0.00;0.00;0.62;7.30;3.83;;;27.90;23.80;;;;;;2199316;63;20406;-70
2022/08/08 01:17:28;0.00;0.00;0.62;0.00;0.00;0.62;4.03;3.30;;;27.90;23.80;;;;;;2201803;62;20590;-72
2022/08/08 01:20:41;0.00;0.00;0.62;0.00;0.00;0.62;5.30;3.97;;;27.90;23.80;;;;;;2214325;62;20372;-72
2022/08/08 01:24:38;0.00;0.00;0.62;0.00;0.00;0.62;3.47;3.13;;;27.90;23.80;;;;;;2213519;62;20596;-71
2022/08/08 01:28:03;0.00;0.00;0.62;0.00;0.00;0.62;3.40;3.10;;;27.90;23.80;;;;;;2198633;62;20392;-71
2022/08/08 01:31:21;0.00;0.00;0.62;0.00;0.00;0.62;4.33;3.93;;;27.80;23.70;;;;;;2213345;62;20379;-70
2022/08/08 01:35:12;0.00;0.00;0.62;0.00;0.00;0.62;4.17;3.47;;;27.80;23.70;;;;;;2213878;62;20374;-69
2022/08/08 01:38:21;0.00;0.00;0.62;0.00;0.00;0.62;3.53;3.20;;;27.80;23.80;;;;;;2213322;62;20878;-70
2022/08/08 01:41:24;0.00;0.00;0.62;0.00;0.00;0.62;4.03;3.63;;;27.90;23.90;;;;;;2214107;62;20410;-70
2022/08/08 01:44:29;0.00;0.00;0.62;0.00;0.00;0.62;4.50;3.57;;;27.80;23.90;;;;;;2214234;62;20428;-68
2022/08/08 01:47:25;0.00;0.00;0.62;0.00;0.00;0.62;3.50;3.13;;;27.80;23.90;;;;;;2216115;62;20388;-71
2022/08/08 01:50:30;0.00;0.00;0.62;0.00;0.00;0.62;3.70;3.30;;;27.80;24.00;;;;;;2213846;62;20407;-69
2022/08/08 01:53:43;0.00;0.00;0.62;0.00;0.00;0.62;4.50;4.10;;;27.80;24.00;;;;;;2213288;62;20369;-71
2022/08/08 01:56:44;0.00;0.00;0.62;0.00;0.00;0.62;3.83;3.53;;;27.80;24.00;;;;;;2213660;62;20584;-71
2022/08/08 02:00:03;0.00;0.00;0.62;0.00;0.00;0.62;3.90;3.47;;;27.80;24.20;;;;;;2214190;62;20410;-71
2022/08/08 02:03:33;0.00;0.00;0.62;0.00;0.00;0.62;4.17;3.77;;;27.80;24.20;;;;;;2214522;62;20400;-72
2022/08/08 02:06:30;0.00;0.00;0.62;0.00;0.00;0.62;3.10;2.80;;;27.80;24.20;;;;;;2213930;62;20400;-71
2022/08/08 02:09:28;0.00;0.00;0.62;0.00;0.00;0.62;3.37;3.07;;;27.80;24.20;;;;;;2216132;62;20361;-71
2022/08/08 02:12:23;0.00;0.00;0.62;0.00;0.00;0.62;4.37;3.73;;;27.70;24.20;;;;;;2213802;62;20383;-71
2022/08/08 02:15:15;0.00;0.00;0.62;0.00;0.00;0.62;4.07;3.40;;;27.70;24.30;;;;;;2216040;62;20369;-70
2022/08/08 02:18:12;0.00;0.00;0.62;0.00;0.00;0.62;3.80;3.40;;;27.70;24.20;;;;;;2216711;62;20401;-73
2022/08/08 02:24:26;0.00;0.00;0.62;0.00;0.00;0.62;4.60;4.20;;;27.70;24.30;;;;;;2213599;62;20797;-70
2022/08/08 02:27:17;0.00;0.00;0.62;0.00;0.00;0.62;5.60;4.00;;;27.70;24.30;;;;;;2213587;62;20418;-71
2022/08/08 02:30:07;0.00;0.00;0.62;0.00;0.00;0.62;3.97;3.57;;;27.70;24.30;;;;;;2213792;62;20409;-69
2022/08/08 02:33:38;0.00;0.00;0.62;0.00;0.00;0.62;3.57;3.20;;;27.70;24.30;;;;;;2214663;62;20404;-70
2022/08/08 02:36:51;0.00;0.00;0.62;0.00;0.00;0.62;3.37;3.07;;;27.70;24.30;;;;;;2217297;62;20356;-71
2022/08/08 02:39:58;0.00;0.00;0.62;0.00;0.00;0.62;4.73;3.80;;;27.70;24.40;;;;;;2215130;62;20368;-69
2022/08/08 02:43:28;0.00;0.00;0.62;0.00;0.00;0.62;6.17;3.93;;;27.70;24.40;;;;;;2217088;62;20368;-70
2022/08/08 02:46:41;0.00;0.00;0.62;0.00;0.00;0.62;4.00;3.60;;;27.70;24.40;;;;;;2214408;62;20399;-71
2022/08/08 02:50:06;0.00;0.00;0.62;0.00;0.00;0.62;3.70;3.23;;;27.70;24.50;;;;;;2214374;62;20437;-71
2022/08/08 02:53:08;0.00;0.00;0.62;0.00;0.00;0.62;3.90;3.50;;;27.70;24.50;;;;;;2214438;62;20385;-70
2022/08/08 02:56:38;0.00;0.00;0.62;0.00;0.00;0.62;5.30;3.30;;;27.70;24.50;;;;;;2214270;62;20368;-70
2022/08/08 03:00:16;0.00;0.00;0.62;0.00;0.00;0.62;4.40;3.57;;;27.70;24.50;;;;;;2209754;62;20392;-69
2022/08/08 03:04:16;0.00;0.00;0.62;0.00;0.00;0.62;5.37;4.13;;;27.60;24.50;;;;;;2214669;62;20400;-71
2022/08/08 03:08:21;0.00;0.00;0.62;0.00;0.00;0.62;4.70;3.10;;;27.60;24.50;;;;;;2214218;62;20381;-70
2022/08/08 03:12:26;0.00;0.00;0.62;0.00;0.00;0.62;4.40;3.63;;;27.60;24.60;;;;;;2200637;62;20403;-70
2022/08/08 03:16:03;0.00;0.00;0.62;0.00;0.00;0.62;3.53;3.20;;;27.60;24.70;;;;;;2213818;62;20414;-71
2022/08/08 03:19:15;0.00;0.00;0.62;0.00;0.00;0.62;4.63;4.23;;;27.60;24.70;;;;;;2207989;62;20445;-71
2022/08/08 03:21:59;0.00;0.00;0.62;0.00;0.00;0.62;4.63;3.60;;;27.60;24.70;;;;;;2213989;62;20732;-71
2022/08/08 03:24:50;0.00;0.00;0.62;0.00;0.00;0.62;4.30;3.90;;;27.50;24.70;;;;;;2214515;62;20604;-69
2022/08/08 03:27:40;0.00;0.00;0.62;0.00;0.00;0.62;3.60;3.30;;;27.50;24.70;;;;;;2214715;62;20392;-70
2022/08/08 03:30:25;0.00;0.00;0.62;0.00;0.00;0.62;3.50;3.20;;;27.50;24.70;;;;;;2213743;62;20373;-69
2022/08/08 03:33:18;0.00;0.00;0.62;0.00;0.00;0.62;4.10;3.70;;;27.50;24.70;;;;;;2214279;62;20372;-69
2022/08/08 03:36:06;0.00;0.00;0.62;0.00;0.00;0.62;4.77;4.37;;;27.50;24.80;;;;;;2217024;62;20421;-71
2022/08/08 03:38:52;0.00;0.00;0.62;0.00;0.00;0.62;4.43;4.03;;;27.50;24.70;;;;;;2214533;62;20609;-69
2022/08/08 03:41:42;0.00;0.00;0.62;0.00;0.00;0.62;5.13;3.40;;;27.50;24.80;;;;;;2214731;62;20442;-71
2022/08/08 03:44:32;0.00;0.00;0.62;0.00;0.00;0.62;4.53;3.50;;;27.50;24.80;;;;;;2213670;62;20767;-70
2022/08/08 03:47:21;0.00;0.00;0.62;0.00;0.00;0.62;4.13;3.73;;;27.50;24.80;;;;;;2214607;62;20404;-70
2022/08/08 03:50:16;0.00;0.00;0.62;0.00;0.00;0.62;4.23;3.60;;;27.50;24.80;;;;;;2217181;62;20415;-70
2022/08/08 03:53:05;0.00;0.00;0.62;0.00;0.00;0.62;3.80;3.40;;;27.40;24.80;;;;;;2214227;62;20638;-71
2022/08/08 03:55:50;0.00;0.00;0.62;0.00;0.00;0.62;5.10;3.87;;;27.40;24.80;;;;;;2214614;62;20369;-69
2022/08/08 03:58:38;0.00;0.00;0.62;0.00;0.00;0.62;4.73;4.20;;;27.40;24.90;;;;;;2213675;62;20469;-71
2022/08/08 04:01:37;0.00;0.00;0.62;0.00;0.00;0.62;3.67;3.27;;;27.40;24.80;;;;;;2217209;62;20475;-70
2022/08/08 04:04:22;0.00;0.00;0.62;0.00;0.00;0.62;4.90;3.70;;;27.30;24.90;;;;;;2217071;62;20451;-70
2022/08/08 04:07:07;0.00;0.00;0.62;0.00;0.00;0.62;4.07;3.67;;;27.30;24.90;;;;;;2214097;62;20372;-71
2022/08/08 04:09:56;0.00;0.00;0.62;0.00;0.00;0.62;4.47;4.03;;;27.30;24.90;;;;;;2216843;62;20369;-71
2022/08/08 04:12:41;0.00;0.00;0.62;0.00;0.00;0.62;4.60;3.73;;;27.30;24.90;;;;;;2216943;62;20587;-69
2022/08/08 04:15:27;0.00;0.00;0.62;0.00;0.00;0.62;4.53;3.83;;;27.30;25.00;;;;;;2214198;62;20364;-71
2022/08/08 04:18:12;0.00;0.00;0.62;0.00;0.00;0.62;5.30;3.70;;;27.30;25.00;;;;;;2213883;62;20713;-71
2022/08/08 04:20:57;0.00;0.00;0.62;0.00;0.00;0.62;4.20;3.47;;;27.30;25.00;;;;;;2216282;62;20357;-69
2022/08/08 04:23:42;0.00;0.00;0.62;0.00;0.00;0.62;4.70;3.70;;;27.30;25.00;;;;;;2214752;62;20663;-70
2022/08/08 04:26:27;0.00;0.00;0.62;0.00;0.00;0.62;4.67;3.70;;;27.30;25.00;;;;;;2214462;62;20449;-70
2022/08/08 04:29:12;0.00;0.00;0.62;0.00;0.00;0.62;4.17;3.77;;;27.20;25.00;;;;;;2211027;62;20442;-69
2022/08/08 04:31:59;0.00;0.00;0.62;0.00;0.00;0.62;5.30;4.50;;;27.20;25.00;;;;;;2216568;62;20369;-71
2022/08/08 04:34:44;0.00;0.00;0.62;0.00;0.00;0.62;4.37;3.20;;;27.20;25.10;;;;;;2214452;62;20429;-70
2022/08/08 04:37:29;0.00;0.00;0.62;0.00;0.00;0.62;4.17;3.63;;;27.20;25.10;;;;;;2213652;62;20425;-69
2022/08/08 04:40:14;0.00;0.00;0.62;0.00;0.00;0.62;4.43;4.03;;;27.20;25.10;;;;;;2214396;62;20405;-71
2022/08/08 04:43:07;0.00;0.00;0.62;0.00;0.00;0.62;4.20;3.80;;;27.20;25.10;;;;;;2213561;62;20380;-69
2022/08/08 04:46:00;0.00;0.00;0.62;0.00;0.00;0.62;4.63;4.10;;;27.20;25.20;;;;;;2216926;62;20577;-68
2022/08/08 04:48:48;0.00;0.00;0.62;0.00;0.00;0.62;4.47;4.03;;;27.20;25.20;;;;;;2216945;62;20510;-69
2022/08/08 04:51:33;0.00;0.00;0.62;0.00;0.00;0.62;5.37;4.87;;;27.10;25.10;;;;;;2213832;62;20406;-70
2022/08/08 04:54:18;0.00;0.00;0.62;0.00;0.00;0.62;5.77;3.30;;;27.10;25.20;;;;;;2214029;62;20376;-69
2022/08/08 04:57:03;0.00;0.00;0.62;0.00;0.00;0.62;4.13;3.73;;;27.10;25.20;;;;;;2216849;62;20369;-70
2022/08/08 04:59:49;0.00;0.00;0.62;0.00;0.00;0.62;4.90;4.40;;;27.10;25.20;;;;;;2216331;62;20786;-71
2022/08/08 05:03:15;0.00;0.00;0.62;0.00;0.00;0.62;3.73;3.23;;;27.10;25.20;;;;;;2213955;62;20431;-70
2022/08/08 05:06:03;0.00;0.00;0.62;0.00;0.00;0.62;3.93;3.40;;;27.00;25.20;;;;;;2213134;62;20400;-71
2022/08/08 05:08:49;0.00;0.00;0.62;0.00;0.00;0.62;4.27;3.87;;;27.10;25.30;;;;;;2213461;62;20397;-71
2022/08/08 05:11:34;0.00;0.00;0.62;0.00;0.00;0.62;4.43;4.03;;;27.00;25.30;;;;;;2216580;62;20750;-70
2022/08/08 05:14:20;0.00;0.00;0.62;0.00;0.00;0.62;6.20;4.10;;;27.00;25.30;;;;;;2213284;62;20683;-72
2022/08/08 05:17:07;0.00;0.00;0.62;0.00;0.00;0.62;4.73;4.23;;;27.00;25.30;;;;;;2213864;62;20365;-69
2022/08/08 05:19:52;0.00;0.00;0.62;0.00;0.00;0.62;4.50;3.80;;;27.00;25.30;;;;;;2210722;62;20449;-71
2022/08/08 05:22:43;0.00;0.00;0.62;0.00;0.00;0.62;4.20;3.80;;;27.00;25.40;;;;;;2213967;62;20574;-71
2022/08/08 05:25:30;0.00;0.00;0.62;0.00;0.00;0.62;4.13;3.73;;;27.00;25.40;;;;;;2213903;62;20648;-70
2022/08/08 05:28:15;0.00;0.00;0.62;0.00;0.00;0.62;5.70;4.40;;;27.00;25.40;;;;;;2213152;62;20385;-71
2022/08/08 05:31:01;0.00;0.00;0.62;0.00;0.00;0.62;5.60;3.93;;;27.00;25.40;;;;;;2216564;62;20368;-71
2022/08/08 05:33:45;0.00;0.00;0.62;0.00;0.00;0.62;4.53;4.00;;;27.00;25.40;;;;;;2214000;62;20693;-71
2022/08/08 05:36:34;0.00;0.00;0.62;0.00;0.00;0.62;3.90;3.50;;;27.00;25.50;;;;;;2215836;62;20725;-71
2022/08/08 05:39:24;0.00;0.00;0.62;0.00;0.00;0.62;4.93;4.43;;;27.00;25.50;;;;;;2213991;62;20415;-71
2022/08/08 05:42:09;0.00;0.00;0.62;0.00;0.00;0.62;3.73;3.33;;;27.00;25.40;;;;;;2215849;62;20372;-73
2022/08/08 05:44:57;0.00;0.00;0.62;0.00;0.00;0.62;4.90;3.60;;;27.00;25.50;;;;;;2214303;62;20393;-71
2022/08/08 05:47:44;0.00;0.00;0.62;0.00;0.00;0.62;5.73;4.90;;;26.90;25.50;;;;;;2214118;62;20619;-72
2022/08/08 05:50:31;0.00;0.00;0.62;0.00;0.00;0.62;4.63;4.13;;;26.90;25.50;;;;;;2215602;62;20368;-68
2022/08/08 05:53:18;0.00;0.00;0.62;0.00;0.00;0.62;6.90;4.53;;;26.90;25.50;;;;;;2213882;62;20368;-67
2022/08/08 05:56:07;0.00;0.00;0.62;0.00;0.00;0.62;6.20;4.90;;;26.90;25.60;;;;;;2213795;62;20356;-67
2022/08/08 05:59:03;0.00;0.00;0.62;0.00;0.00;0.62;5.33;4.83;;;26.90;25.70;;;;;;2213185;62;20392;-69
2022/08/08 06:01:55;0.00;0.00;0.62;0.00;0.00;0.62;5.60;4.20;;;26.90;25.70;;;;;;2216429;62;20396;-66
2022/08/08 06:04:40;0.00;0.00;0.62;0.00;0.00;0.62;5.03;4.00;;;27.00;25.70;;;;;;2213259;62;20428;-64
2022/08/08 06:07:26;0.00;0.00;0.62;0.00;0.00;0.62;4.53;3.73;;;26.90;25.70;;;;;;2217092;62;20790;-66
2022/08/08 06:10:11;0.00;0.00;0.62;0.00;0.00;0.62;5.27;4.00;;;26.90;25.70;;;;;;2214693;62;20734;-61
2022/08/08 06:12:59;0.00;0.00;0.62;0.00;0.00;0.62;5.10;4.60;;;26.90;25.80;;;;;;2213670;62;20401;-66
2022/08/08 06:15:47;0.00;0.00;0.62;0.00;0.00;0.62;4.10;3.70;;;27.00;25.80;;;;;;2213294;62;20413;-66
2022/08/08 06:18:35;0.00;0.00;0.62;0.00;0.00;0.62;5.40;4.63;;;27.00;25.90;;;;;;2214211;62;20430;-65
2022/08/08 06:21:21;0.00;0.00;0.62;0.00;0.00;0.62;5.30;4.20;;;27.00;25.90;;;;;;2213877;62;20404;-64
2022/08/08 06:24:06;0.00;0.00;0.62;0.00;0.00;0.62;4.40;4.00;;;27.00;25.90;;;;;;2214562;62;20414;-65
2022/08/08 06:27:03;0.00;0.00;0.62;0.00;0.00;0.62;5.83;4.13;;;27.00;25.90;;;;;;2213653;62;20369;-68
2022/08/08 06:30:01;0.00;0.00;0.62;0.00;0.00;0.62;5.27;4.40;;;27.00;25.90;;;;;;2214872;62;20406;-66
2022/08/08 06:32:50;0.00;0.00;0.62;0.00;0.00;0.62;4.97;4.20;;;27.00;25.90;;;;;;2214285;62;20376;-65
2022/08/08 06:35:45;0.00;0.00;0.62;0.00;0.00;0.62;3.80;3.50;;;27.00;25.80;;;;;;2439416;54;20410;-62
2022/08/08 06:38:35;0.00;0.00;0.62;0.00;0.00;0.62;5.93;4.57;;;27.00;25.80;;;;;;2214290;62;20416;-65
2022/08/08 06:41:25;0.00;0.00;0.62;0.00;0.00;0.62;4.50;3.60;;;27.00;25.80;;;;;;2213605;62;20364;-62
2022/08/08 06:44:14;0.00;0.00;0.62;0.00;0.00;0.62;4.20;3.60;;;27.00;25.80;;;;;;2214683;62;20419;-63
2022/08/08 06:47:01;0.00;0.00;0.62;0.00;0.00;0.62;4.33;3.93;;;27.10;25.80;;;;;;2214162;62;20426;-63
2022/08/08 06:49:46;0.00;0.00;0.62;0.00;0.00;0.62;4.00;3.60;;;27.10;25.80;;;;;;2213584;62;20381;-65
2022/08/08 06:52:32;0.00;0.00;0.62;0.00;0.00;0.62;4.37;3.33;;;27.10;25.70;;;;;;2214490;62;20361;-67
2022/08/08 06:55:20;0.00;0.00;0.62;0.00;0.00;0.62;5.27;4.10;;;27.10;25.70;;;;;;2214738;62;20441;-65
2022/08/08 06:58:05;0.00;0.00;0.62;0.00;0.00;0.62;4.13;3.73;;;27.10;25.80;;;;;;2213311;62;20408;-62
2022/08/08 07:00:51;0.00;0.00;0.62;0.00;0.00;0.62;5.23;4.00;;;27.10;25.80;;;;;;2214205;62;20372;-62
2022/08/08 07:03:51;0.00;0.00;0.62;0.00;0.00;0.62;4.07;3.67;;;27.10;25.90;;;;;;2434610;54;20473;-62
2022/08/08 07:06:42;0.00;0.00;0.62;0.00;0.00;0.62;6.13;4.23;;;27.10;25.80;;;;;;2210181;62;20776;-62
2022/08/08 07:09:41;0.00;0.00;0.62;0.00;0.00;0.62;4.73;4.03;;;27.10;25.80;;;;;;2216259;62;20396;-65
2022/08/08 07:12:37;0.00;0.00;0.62;0.00;0.00;0.62;5.00;3.90;;;27.10;25.90;;;;;;2213402;62;20365;-63
2022/08/08 07:15:35;0.00;0.00;0.62;0.00;0.00;0.62;4.70;4.00;;;27.10;25.80;;;;;;2214099;62;20725;-62
2022/08/08 07:18:32;0.00;0.00;0.62;0.00;0.00;0.62;4.63;4.17;;;27.20;25.90;;;;;;2213340;62;20429;-61
2022/08/08 07:21:22;0.00;0.00;0.62;0.00;0.00;0.62;4.77;4.13;;;27.10;25.90;;;;;;2214190;62;20437;-62
2022/08/08 07:24:24;0.00;0.00;0.62;0.00;0.00;0.62;4.43;3.40;;;27.10;25.80;;;;;;2214248;62;20602;-62
2022/08/08 07:27:18;0.00;0.00;0.62;0.00;0.00;0.62;5.13;4.63;;;27.20;25.90;;;;;;2213193;62;20431;-62
2022/08/08 07:30:06;0.00;0.00;0.62;0.00;0.00;0.62;4.40;4.00;;;27.20;26.00;;;;;;2214236;62;20415;-62
2022/08/08 07:32:58;0.00;0.00;0.62;0.00;0.00;0.62;4.43;3.70;;;27.10;26.00;;;;;;2214208;62;20374;-63
2022/08/08 07:35:46;0.00;0.00;0.62;0.00;0.00;0.62;4.10;3.70;;;27.20;26.10;;;;;;2214187;62;20391;-62
2022/08/08 07:38:35;0.00;0.00;0.62;0.00;0.00;0.62;4.13;3.73;;;27.10;26.10;;;;;;2214162;62;20385;-62
2022/08/08 07:41:25;0.00;0.00;0.62;0.00;0.00;0.62;3.93;3.50;;;27.20;26.10;;;;;;2213376;62;20376;-65
2022/08/08 07:44:17;0.00;0.00;0.62;0.00;0.00;0.62;5.20;4.20;;;27.10;26.00;;;;;;2214182;62;20428;-64
2022/08/08 07:47:03;0.00;0.00;0.62;0.00;0.00;0.62;4.77;4.30;;;27.10;26.10;;;;;;2214182;62;20373;-64
2022/08/08 07:49:48;0.00;0.00;0.62;0.00;0.00;0.62;4.60;3.70;;;27.10;26.20;;;;;;2210820;62;20392;-62
2022/08/08 07:52:33;0.00;0.00;0.62;0.00;0.00;0.62;4.63;4.23;;;27.20;26.30;;;;;;2214008;62;20421;-62
2022/08/08 07:55:23;0.00;0.00;0.62;0.00;0.00;0.62;3.83;3.43;;;27.10;26.40;;;;;;2213398;62;20438;-62
2022/08/08 07:58:20;0.00;0.00;0.62;0.00;0.00;0.62;5.37;4.60;;;27.20;26.40;;;;;;2213987;62;20393;-63
2022/08/08 08:01:10;0.00;0.00;0.62;0.00;0.00;0.62;4.20;3.80;;;27.20;26.50;;;;;;2214520;62;20412;-63
2022/08/08 08:04:02;0.00;0.00;0.62;0.00;0.00;0.62;6.30;4.23;;;27.20;26.60;;;;;;2213346;62;20365;-63
2022/08/08 08:06:49;0.00;0.00;0.62;0.00;0.00;0.62;4.60;3.50;;;27.20;26.70;;;;;;2213944;62;20407;-70
2022/08/08 08:09:37;0.00;0.00;0.62;0.00;0.00;0.62;3.80;3.47;;;27.20;26.70;;;;;;2214212;62;20373;-71
2022/08/08 08:12:24;0.00;0.00;0.62;0.00;0.00;0.62;4.73;4.33;;;27.20;26.70;;;;;;2213363;62;20380;-71
2022/08/08 08:15:12;0.00;0.00;0.62;0.00;0.00;0.62;4.23;3.83;;;27.20;26.60;;;;;;2214026;62;20720;-71
2022/08/08 08:18:03;0.00;0.00;0.62;0.00;0.00;0.62;5.23;4.47;;;27.20;26.50;;;;;;2213234;62;20419;-70
2022/08/08 08:20:51;0.00;0.00;0.62;0.00;0.00;0.62;4.70;3.87;;;27.20;26.50;;;;;;2214167;62;20420;-69
2022/08/08 08:23:36;0.00;0.00;0.62;0.00;0.00;0.62;4.00;3.60;;;27.20;26.60;;;;;;2214081;62;20400;-70
2022/08/08 08:26:22;0.00;0.00;0.62;0.00;0.00;0.62;3.80;3.43;;;27.20;26.50;;;;;;2213075;62;20737;-69
2022/08/08 08:29:09;0.00;0.00;0.62;0.00;0.00;0.62;4.33;3.57;;;27.20;26.50;;;;;;2214593;62;20393;-73
2022/08/08 08:31:56;0.00;0.00;0.62;0.00;0.00;0.62;3.90;3.03;;;27.20;26.50;;;;;;2213873;62;20382;-69
2022/08/08 08:34:41;0.00;0.00;0.62;0.00;0.00;0.62;4.40;3.70;;;27.20;26.50;;;;;;2214163;62;20617;-72
2022/08/08 08:37:27;0.00;0.00;0.62;0.00;0.00;0.62;4.30;3.80;;;27.20;26.40;;;;;;2213983;62;20396;-71
2022/08/08 08:40:13;0.00;0.00;0.62;0.00;0.00;0.62;3.70;3.40;;;27.20;26.40;;;;;;2213279;62;20437;-66
2022/08/08 08:42:58;0.00;0.00;0.62;0.00;0.00;0.62;3.93;3.53;;;27.30;26.40;;;;;;2214524;62;20740;-67
2022/08/08 08:45:47;0.00;0.00;0.62;0.00;0.00;0.62;3.53;3.20;;;27.30;26.40;;;;;;2214088;62;20618;-70
2022/08/08 08:48:33;0.00;0.00;0.62;0.00;0.00;0.62;4.37;3.60;;;27.30;26.40;;;;;;2213136;62;20757;-67
2022/08/08 08:51:19;0.00;0.00;0.62;0.00;0.00;0.62;5.07;3.20;;;27.30;26.40;;;;;;2213997;62;20384;-68
2022/08/08 08:54:07;0.00;0.00;0.62;0.00;0.00;0.62;4.07;3.27;;;27.30;26.40;;;;;;2211395;62;20447;-67
2022/08/08 08:56:55;0.00;0.00;0.62;0.00;0.00;0.62;4.10;3.50;;;27.30;26.40;;;;;;2213974;62;20368;-67
2022/08/08 08:59:45;0.00;0.00;0.62;0.00;0.00;0.62;4.40;3.43;;;27.30;26.40;;;;;;2214120;62;20475;-66
2022/08/08 09:02:35;0.00;0.00;0.62;0.00;0.00;0.62;3.97;3.20;;;27.40;26.40;;;;;;2213400;62;20627;-69
2022/08/08 09:05:21;0.00;0.00;0.62;0.00;0.00;0.62;4.80;3.50;;;27.40;26.40;;;;;;2214102;62;20389;-66
2022/08/08 09:08:08;0.00;0.00;0.62;0.00;0.00;0.62;4.67;3.53;;;27.40;26.30;;;;;;2213923;62;20393;-68
2022/08/08 09:10:54;0.00;0.00;0.62;0.00;0.00;0.62;4.80;3.50;;;27.40;26.30;;;;;;2213335;62;20411;-67
2022/08/08 09:13:40;0.00;0.00;0.62;0.00;0.00;0.62;3.30;3.00;;;27.40;26.20;;;;;;2214457;62;20498;-67
2022/08/08 09:16:25;0.00;0.00;0.62;0.00;0.00;0.62;4.10;3.70;;;27.40;26.20;;;;;;2214638;62;20408;-67
2022/08/08 09:19:13;0.00;0.00;0.62;0.00;0.00;0.62;3.83;3.43;;;27.40;26.20;;;;;;2214494;62;20442;-68
2022/08/08 09:21:59;0.00;0.00;0.62;0.00;0.00;0.62;6.90;4.17;;;27.40;26.10;;;;;;2214183;62;20599;-67
2022/08/08 09:24:44;0.00;0.00;0.62;0.00;0.00;0.62;4.20;3.30;;;27.40;26.10;;;;;;2213778;62;20434;-69
2022/08/08 09:27:30;0.00;0.00;0.62;0.00;0.00;0.62;4.63;3.50;;;27.50;26.10;;;;;;2214423;62;20430;-67
2022/08/08 09:30:16;0.00;0.00;0.62;0.00;0.00;0.62;5.80;2.77;;;27.50;26.10;;;;;;2214399;62;20464;-69
2022/08/08 09:33:04;0.00;0.00;0.62;0.00;0.00;0.62;4.60;3.23;;;27.50;26.00;;;;;;2213359;62;20408;-68
2022/08/08 09:35:52;0.00;0.00;0.62;0.00;0.00;0.62;5.20;3.40;;;27.50;26.10;;;;;;2213953;62;20360;-64
2022/08/08 09:38:51;0.00;0.00;0.62;0.00;0.00;0.62;3.80;3.17;;;27.50;26.00;;;;;;2213812;62;20615;-66
2022/08/08 09:41:39;0.00;0.00;0.62;0.00;0.00;0.62;3.63;3.20;;;27.50;25.80;;;;;;2213920;62;20435;-64
2022/08/08 09:44:41;0.00;0.00;0.62;0.00;0.00;0.62;3.80;3.23;;;27.60;25.70;;;;;;2213843;62;20400;-66
2022/08/08 09:47:29;0.00;0.00;0.62;0.00;0.00;0.62;8.03;4.03;;;27.60;25.50;;;;;;2213466;62;20388;-66
2022/08/08 09:50:16;0.00;0.00;0.62;0.00;0.00;0.62;3.07;2.77;;;27.60;25.50;;;;;;2214430;62;20372;-67
2022/08/08 09:53:05;0.00;0.00;0.62;0.00;0.00;0.62;4.33;3.20;;;27.60;25.40;;;;;;2214182;62;20365;-66
2022/08/08 09:55:50;0.00;0.00;0.62;0.00;0.00;0.62;4.90;3.67;;;27.60;25.40;;;;;;2213673;62;20375;-65
2022/08/08 09:58:39;0.00;0.00;0.62;0.00;0.00;0.62;5.30;3.00;;;27.60;25.90;;;;;;2214202;62;20603;-65
2022/08/08 10:01:26;0.00;0.00;0.62;0.00;0.00;0.62;3.77;3.30;;;27.60;25.20;;;;;;2213426;62;20476;-64
2022/08/08 10:04:16;0.00;0.00;0.62;0.00;0.00;0.62;4.10;3.40;;;27.60;25.00;;;;;;2214236;62;20410;-64
2022/08/08 10:07:02;0.00;0.00;0.62;0.00;0.00;0.62;3.77;3.23;;;27.60;25.00;;;;;;2214084;62;20426;-64
2022/08/08 10:09:51;0.00;0.00;0.62;0.00;0.00;0.62;4.00;3.50;;;27.60;25.00;;;;;;2213495;62;20449;-64
2022/08/08 10:12:38;0.00;0.00;0.62;0.00;0.00;0.62;6.93;3.37;;;27.60;25.00;;;;;;2214187;62;20357;-66
2022/08/08 10:15:26;0.00;0.00;0.62;0.00;0.00;0.62;5.37;2.97;;;27.60;24.90;;;;;;2214287;62;20621;-64
2022/08/08 10:18:11;0.00;0.00;0.62;0.00;0.00;0.62;5.33;3.27;;;27.60;24.90;;;;;;2213508;62;20396;-64
2022/08/08 10:21:03;0.00;0.00;0.62;0.00;0.00;0.62;4.23;3.10;;;27.70;25.10;;;;;;2214334;62;20372;-63
2022/08/08 10:23:50;0.00;0.00;0.62;0.00;0.00;0.62;3.67;3.27;;;27.70;25.10;;;;;;2213648;62;20388;-65
2022/08/08 10:26:43;0.00;0.00;0.62;0.00;0.00;0.62;5.83;3.70;;;27.70;25.00;;;;;;2214005;62;20372;-63
2022/08/08 10:29:51;0.00;0.00;0.62;0.00;0.00;0.62;3.40;3.10;;;27.70;25.00;;;;;;2214179;62;20376;-62
2022/08/08 10:32:40;0.00;0.00;0.62;0.00;0.00;0.62;4.10;3.00;;;27.70;24.90;;;;;;2213357;62;20387;-62
2022/08/08 10:35:27;0.00;0.00;0.62;0.00;0.00;0.62;3.93;3.13;;;27.70;25.00;;;;;;2214259;62;20441;-62
2022/08/08 10:38:15;0.00;0.00;0.62;0.00;0.00;0.62;3.60;3.00;;;27.70;25.00;;;;;;2212895;62;20497;-62
2022/08/08 10:41:03;0.00;0.00;0.62;0.00;0.00;0.62;4.30;2.77;;;27.70;25.00;;;;;;2214128;62;20592;-62
2022/08/08 10:43:51;0.00;0.00;0.62;0.00;0.00;0.62;3.73;2.50;;;27.70;25.00;;;;;;2214185;62;20428;-62
2022/08/08 10:46:36;0.00;0.00;0.62;0.00;0.00;0.62;16.43;4.63;;;27.80;25.10;;;;;;2213241;62;20372;-62
2022/08/08 10:49:23;0.00;0.00;0.62;0.00;0.00;0.62;3.63;2.87;;;27.80;25.00;;;;;;2214128;62;20396;-62
2022/08/08 10:52:09;0.00;0.00;0.62;0.00;0.00;0.62;4.30;2.87;;;27.80;25.00;;;;;;2214737;62;20365;-62
2022/08/08 10:54:55;0.00;0.00;0.62;0.00;0.00;0.62;4.70;3.30;;;27.80;25.00;;;;;;2214243;62;20374;-62
2022/08/08 10:57:43;0.00;0.00;0.62;0.00;0.00;0.62;3.00;2.40;;;27.80;24.70;;;;;;2214642;62;20388;-62
2022/08/08 11:00:30;0.00;0.00;0.62;0.00;0.00;0.62;3.93;3.17;;;27.90;24.70;;;;;;2213963;62;20377;-62
2022/08/08 11:03:19;0.00;0.00;0.62;0.00;0.00;0.62;3.97;3.30;;;27.90;24.60;;;;;;2214960;62;20487;-62
2022/08/08 11:06:06;0.00;0.00;0.62;0.00;0.00;0.62;3.50;3.20;;;27.90;24.40;;;;;;2214542;62;20438;-62
2022/08/08 11:09:00;0.00;0.00;0.62;0.00;0.00;0.62;3.20;2.87;;;27.90;24.40;;;;;;2213651;62;20392;-62
2022/08/08 11:11:46;0.00;0.00;0.62;0.00;0.00;0.62;2.83;2.60;;;27.90;24.40;;;;;;2214397;62;20576;-62
2022/08/08 11:14:31;0.00;0.00;0.62;0.00;0.00;0.62;3.90;3.40;;;27.90;24.30;;;;;;2214768;62;20648;-63
2022/08/08 11:17:22;0.00;0.00;0.62;0.00;0.00;0.62;3.50;3.03;;;27.90;24.20;;;;;;2214313;62;20465;-62
2022/08/08 11:20:08;0.00;0.00;0.62;0.00;0.00;0.62;5.00;3.10;;;27.90;24.20;;;;;;2214856;62;20472;-62
2022/08/08 11:22:55;0.00;0.00;0.62;0.00;0.00;0.62;2.83;2.60;;;28.00;24.20;;;;;;2214256;62;20380;-61
2022/08/08 11:25:40;0.00;0.00;0.62;0.00;0.00;0.62;3.50;2.63;;;28.00;24.20;;;;;;2214903;62;20395;-62
2022/08/08 11:28:26;0.00;0.00;0.62;0.00;0.00;0.62;3.20;2.90;;;28.00;24.30;;;;;;2214786;62;20775;-61
2022/08/08 11:31:15;0.00;0.00;0.62;0.00;0.00;0.62;3.37;2.90;;;28.00;24.20;;;;;;2214049;62;20376;-62
2022/08/08 11:34:03;0.00;0.00;0.62;0.00;0.00;0.62;3.63;3.13;;;28.00;24.10;;;;;;2214865;62;20485;-61
2022/08/08 11:36:48;0.00;0.00;0.62;0.00;0.00;0.62;4.27;3.07;;;28.00;24.10;;;;;;2214742;62;20609;-61
2022/08/08 11:39:35;0.00;0.00;0.62;0.00;0.00;0.62;3.40;3.07;;;28.00;24.10;;;;;;2214209;62;20384;-61